Shahrekord, Iran
Current Conditions -  °F | °C
As of 12:00 PM on Monday 24 Nov 2014 (Local Time) from OIFS Reporting Station
Few Clouds Few Clouds  
Wind Chill: 55°   Ceiling: Unl
Heat Index: 55°   Visibility: 6mi
Dew Point: 30°   Wind: 16mph
Humidity: 38%   Direction: 200°SSW
Pressure: 30.12"   Gusts: 22mph
Location:  32.33°N, 50.86°E
Report Text: OIFS 240900Z 20014G19KT 9999 FEW040 13/M01 Q1020
Loading
Personal Weather Stations






























Interactive Weather Map New forecast layout! Learn more

10-Day Weather Forecast

Advertisements
Track Severe Weather on mobile